createdAt,value
2018-09-18T00:01:02.859Z,100471.32
2018-09-18T00:06:06.457Z,100468.77
2018-09-18T00:11:09.900Z,100469.51
2018-09-18T00:16:13.327Z,100465.61
2018-09-18T00:21:16.839Z,100457.55
2018-09-18T00:26:20.329Z,100462.47
2018-09-18T00:31:23.793Z,100449.74
2018-09-18T00:36:27.277Z,100454.41
2018-09-18T00:41:30.730Z,100453.06
2018-09-18T00:46:34.186Z,100450.65
2018-09-18T00:51:37.639Z,100454.69
2018-09-18T00:56:41.112Z,100442.31
2018-09-18T01:01:44.562Z,100438.69
2018-09-18T01:06:48.014Z,100440.53
2018-09-18T01:11:51.459Z,100441.27
2018-09-18T01:16:54.936Z,100441.19
2018-09-18T01:21:58.412Z,100437.78
2018-09-18T01:27:01.850Z,100433.76
2018-09-18T01:32:05.588Z,100436.15
2018-09-18T01:37:09.092Z,100438.58
2018-09-18T01:42:12.562Z,100433.06
2018-09-18T01:47:16.019Z,100432.70
2018-09-18T01:52:19.514Z,100433.61
2018-09-18T01:57:23.055Z,100432.75
2018-09-18T02:02:26.580Z,100433.45
2018-09-18T02:07:30.033Z,100436.51
2018-09-18T02:12:33.533Z,100433.09
2018-09-18T02:17:37.149Z,100430.18
2018-09-18T02:22:40.600Z,100430.81
2018-09-18T02:27:44.104Z,100430.09
2018-09-18T02:32:47.577Z,100431.05
2018-09-18T02:37:51.043Z,100430.83
2018-09-18T02:42:54.532Z,100427.77
2018-09-18T02:47:57.988Z,100432.30
2018-09-18T02:53:01.439Z,100428.54
2018-09-18T02:58:04.879Z,100423.75
2018-09-18T03:03:08.342Z,100418.01
2018-09-18T03:08:11.833Z,100421.20
2018-09-18T03:13:15.273Z,100414.11
2018-09-18T03:18:18.742Z,100412.89
2018-09-18T03:23:22.216Z,100416.22
2018-09-18T03:28:25.716Z,100417.06
2018-09-18T03:33:29.158Z,100418.69
2018-09-18T03:38:32.605Z,100422.33
2018-09-18T03:43:36.043Z,100419.28
2018-09-18T03:48:39.511Z,100418.92
2018-09-18T03:53:42.970Z,100400.46
2018-09-18T03:58:46.442Z,100400.72
2018-09-18T04:03:49.899Z,100396.69
2018-09-18T04:08:53.365Z,100384.98
2018-09-18T04:13:56.821Z,100395.61
2018-09-18T04:19:00.315Z,100398.89
2018-09-18T04:24:04.561Z,100403.32
2018-09-18T04:29:08.891Z,100410.23
2018-09-18T04:34:12.377Z,100404.77
2018-09-18T04:39:15.841Z,100400.50
2018-09-18T04:44:19.283Z,100399.18
2018-09-18T04:49:22.755Z,100411.89
2018-09-18T04:54:26.218Z,100404.81
2018-09-18T05:04:32.218Z,100399.93
2018-09-18T05:09:35.706Z,100403.23
2018-09-18T05:14:39.179Z,100401.88
2018-09-18T05:19:42.682Z,100405.06
2018-09-18T05:24:46.183Z,100397.62
2018-09-18T05:29:49.680Z,100403.48
2018-09-18T05:34:53.193Z,100407.16
2018-09-18T05:39:56.677Z,100408.38
2018-09-18T05:45:00.164Z,100411.52
2018-09-18T05:50:03.917Z,100405.91
2018-09-18T05:55:07.711Z,100402.00
2018-09-18T06:00:11.167Z,100407.00
2018-09-18T06:05:14.657Z,100405.66
2018-09-18T06:10:18.104Z,100399.93
2018-09-18T06:15:21.594Z,100403.83
2018-09-18T06:20:25.059Z,100412.03
2018-09-18T06:25:28.503Z,100413.22
2018-09-18T06:30:31.944Z,100420.88
2018-09-18T06:35:35.426Z,100419.98
2018-09-18T06:40:38.908Z,100419.62
2018-09-18T06:45:42.393Z,100422.02
2018-09-18T06:50:45.877Z,100423.48
2018-09-18T06:55:49.348Z,100425.03
2018-09-18T07:00:52.800Z,100427.84
2018-09-18T07:05:56.259Z,100435.55
2018-09-18T07:10:59.710Z,100430.55
2018-09-18T07:16:03.183Z,100430.02
2018-09-18T07:21:06.749Z,100424.48
2018-09-18T07:26:10.262Z,100423.42
2018-09-18T07:31:13.701Z,100413.89
2018-09-18T07:36:17.217Z,100416.49
2018-09-18T07:41:20.687Z,100411.23
2018-09-18T07:46:24.186Z,100421.25
2018-09-18T07:51:27.648Z,100424.81
2018-09-18T07:56:31.588Z,100412.64
2018-09-18T08:01:35.110Z,100412.77
2018-09-18T08:06:38.618Z,100412.64
2018-09-18T08:11:42.142Z,100415.58
2018-09-18T08:16:45.635Z,100413.73
2018-09-18T08:21:49.127Z,100413.09
2018-09-18T08:26:52.649Z,100410.14
2018-09-18T08:31:56.185Z,100405.52
2018-09-18T08:36:59.646Z,100400.23
2018-09-18T08:42:03.123Z,100399.73
2018-09-18T08:47:06.683Z,100401.75
2018-09-18T08:52:10.317Z,100389.15
2018-09-18T08:57:13.623Z,100392.78
2018-09-18T09:02:17.161Z,100390.00
2018-09-18T09:07:20.627Z,100378.42
2018-09-18T09:12:24.172Z,100384.77
2018-09-18T09:17:27.651Z,100384.05
2018-09-18T09:22:31.162Z,100371.47
2018-09-18T09:27:34.655Z,100378.76
2018-09-18T09:32:38.116Z,100373.59
2018-09-18T09:37:41.635Z,100366.02
2018-09-18T09:42:45.100Z,100367.84
2018-09-18T09:47:48.555Z,100354.38
2018-09-18T09:52:52.051Z,100351.91
2018-09-18T09:57:55.564Z,100353.61
2018-09-18T10:02:59.051Z,100351.12
2018-09-18T10:08:02.493Z,100339.50
2018-09-18T10:13:06.072Z,100334.83
2018-09-18T10:18:09.630Z,100328.59
2018-09-18T10:23:13.085Z,100329.86
2018-09-18T10:28:16.573Z,100322.32
2018-09-18T10:33:20.080Z,100313.96
2018-09-18T10:38:23.592Z,100300.56
2018-09-18T10:43:27.096Z,100308.33
2018-09-18T10:48:30.638Z,100296.38
2018-09-18T10:53:34.128Z,100290.11
2018-09-18T10:58:37.623Z,100282.20
2018-09-18T11:03:41.088Z,100268.52
2018-09-18T11:08:44.600Z,100275.25
2018-09-18T11:13:48.189Z,100266.52
2018-09-18T11:18:51.694Z,100264.71
2018-09-18T11:23:55.198Z,100252.84
2018-09-18T11:29:06.057Z,100249.36
2018-09-18T11:34:09.533Z,100257.31
2018-09-18T11:39:13.026Z,100255.31
2018-09-18T11:44:16.553Z,100241.38
2018-09-18T11:49:19.987Z,100232.67
2018-09-18T11:54:23.519Z,100232.69
2018-09-18T11:59:27.044Z,100222.31
2018-09-18T12:04:30.552Z,100223.95
2018-09-18T12:09:34.025Z,100214.23
2018-09-18T12:14:37.467Z,100207.28
2018-09-18T12:19:40.923Z,100202.89
2018-09-18T12:24:44.396Z,100208.48
2018-09-18T12:29:48.007Z,100196.30
2018-09-18T12:34:51.457Z,100192.05
2018-09-18T12:39:54.952Z,100190.35
2018-09-18T12:44:58.413Z,100188.77
2018-09-18T12:50:02.049Z,100181.03
2018-09-18T12:55:05.584Z,100173.33
2018-09-18T13:00:09.119Z,100170.64
2018-09-18T13:05:12.569Z,100167.51
2018-09-18T13:10:16.032Z,100147.30
2018-09-18T13:15:19.508Z,100155.03
2018-09-18T13:20:23.002Z,100152.25
2018-09-18T13:25:26.511Z,100140.77
2018-09-18T13:30:30.011Z,100148.00
2018-09-18T13:35:33.486Z,100147.94
2018-09-18T13:40:36.932Z,100135.67
2018-09-18T13:45:40.370Z,100136.37
2018-09-18T13:50:43.831Z,100130.83
2018-09-18T13:55:47.289Z,100120.31
2018-09-18T14:00:50.853Z,100124.73
2018-09-18T14:05:54.328Z,100128.45
2018-09-18T14:10:57.788Z,100121.86
2018-09-18T14:16:01.247Z,100122.52
2018-09-18T14:27:25.824Z,100117.27
2018-09-18T14:32:29.267Z,100109.59
2018-09-18T14:37:32.738Z,100111.38
2018-09-18T14:54:47.516Z,100102.00
2018-09-18T14:59:51.034Z,100103.55
2018-09-18T15:04:54.524Z,100100.84
2018-09-18T15:09:57.955Z,100101.31
2018-09-18T15:15:01.484Z,100101.75
2018-09-18T15:20:05.483Z,100103.34
2018-09-18T15:25:09.117Z,100105.62
2018-09-18T15:30:13.154Z,100104.89
2018-09-18T15:35:16.640Z,100105.81
2018-09-18T15:40:20.140Z,100105.07
2018-09-18T15:45:23.659Z,100111.52
2018-09-18T15:50:27.087Z,100104.27
2018-09-18T15:55:30.611Z,100101.42
2018-09-18T16:00:34.047Z,100100.77
2018-09-18T16:05:37.531Z,100100.62
2018-09-18T16:10:40.981Z,100094.75
2018-09-18T16:15:44.536Z,100098.50
2018-09-18T16:20:48.001Z,100089.91
2018-09-18T16:25:51.475Z,100093.14
2018-09-18T16:30:55.051Z,100085.90
2018-09-18T16:35:58.473Z,100091.91
2018-09-18T16:41:02.039Z,100095.46
2018-09-18T16:46:05.497Z,100102.55
2018-09-18T16:51:09.056Z,100109.80
2018-09-18T16:56:12.509Z,100104.41
2018-09-18T17:01:15.981Z,100106.60
2018-09-18T17:06:19.756Z,100108.45
2018-09-18T17:11:23.229Z,100101.94
2018-09-18T17:16:26.759Z,100101.13
2018-09-18T17:21:30.276Z,100105.40
2018-09-18T17:26:33.749Z,100102.05
2018-09-18T17:31:37.385Z,100107.52
2018-09-18T17:36:40.863Z,100113.95
2018-09-18T17:41:44.406Z,100109.72
2018-09-18T17:46:47.850Z,100117.77
2018-09-18T17:51:51.504Z,100120.97
2018-09-18T17:56:55.138Z,100125.36
2018-09-18T18:01:58.643Z,100130.88
2018-09-18T18:07:02.081Z,100141.52
2018-09-18T18:12:05.547Z,100139.58
2018-09-18T18:17:09.117Z,100140.09
2018-09-18T18:22:12.566Z,100149.77
2018-09-18T18:27:17.592Z,100145.21
2018-09-18T18:32:21.121Z,100148.98
2018-09-18T18:37:24.582Z,100156.23
2018-09-18T18:42:28.169Z,100156.32
2018-09-18T18:47:31.772Z,100155.47
2018-09-18T18:52:35.199Z,100163.07
2018-09-18T18:57:38.853Z,100168.43
2018-09-18T19:02:42.491Z,100168.12
2018-09-18T19:07:45.951Z,100167.13
2018-09-18T19:13:02.263Z,100182.52
2018-09-18T19:18:05.769Z,100182.82
2018-09-18T19:23:09.802Z,100190.61
2018-09-18T19:28:13.621Z,100193.47
2018-09-18T19:33:17.266Z,100193.70
2018-09-18T19:38:20.602Z,100189.56
2018-09-18T19:43:24.082Z,100196.02
2018-09-18T19:48:27.669Z,100195.66
2018-09-18T19:53:31.159Z,100199.52
2018-09-18T19:58:34.648Z,100196.47
2018-09-18T20:03:38.321Z,100201.03
2018-09-18T20:08:41.773Z,100207.27
2018-09-18T20:13:45.442Z,100202.02
2018-09-18T20:18:48.896Z,100199.67
2018-09-18T20:23:52.436Z,100209.63
2018-09-18T20:28:55.996Z,100214.33
2018-09-18T20:33:59.420Z,100212.13
2018-09-18T20:39:02.929Z,100218.19
2018-09-18T20:44:06.406Z,100221.43
2018-09-18T20:49:09.889Z,100222.63
2018-09-18T20:54:13.408Z,100224.83
2018-09-18T20:59:16.909Z,100226.83
2018-09-18T21:04:20.355Z,100229.03
2018-09-18T21:09:24.047Z,100228.68
2018-09-18T21:14:27.499Z,100227.84
2018-09-18T21:19:30.963Z,100229.88
2018-09-18T21:24:34.415Z,100235.51
2018-09-18T21:29:37.948Z,100232.08
2018-09-18T21:34:41.471Z,100227.17
2018-09-18T21:39:44.945Z,100224.98
2018-09-18T21:44:48.400Z,100233.58
2018-09-18T21:49:51.907Z,100228.68
2018-09-18T21:54:55.752Z,100233.08
2018-09-18T21:59:59.248Z,100238.14
2018-09-18T22:05:02.751Z,100234.58
2018-09-18T22:10:06.360Z,100241.34
2018-09-18T22:15:09.831Z,100240.98
2018-09-18T22:20:13.356Z,100244.34
2018-09-18T22:25:16.866Z,100240.45
2018-09-18T22:30:20.417Z,100247.89
2018-09-18T22:35:23.874Z,100245.19
2018-09-18T22:40:27.330Z,100246.89
2018-09-18T22:45:30.842Z,100242.19
2018-09-18T22:50:34.405Z,100251.14
2018-09-18T22:55:37.968Z,100252.48
2018-09-18T23:00:41.444Z,100249.24
2018-09-18T23:05:44.930Z,100250.44
2018-09-18T23:10:48.429Z,100250.44
2018-09-18T23:15:51.912Z,100250.44
2018-09-18T23:20:55.360Z,100246.54
2018-09-18T23:25:58.837Z,100251.64
2018-09-18T23:31:02.298Z,100248.24
2018-09-18T23:36:05.770Z,100245.54
2018-09-18T23:41:09.252Z,100250.09
2018-09-18T23:46:12.770Z,100255.49
2018-09-18T23:51:16.234Z,100256.34
2018-09-18T23:56:19.674Z,100260.89
